Time;durP1;ratioP1;P1;durP2;ratioP2;P2;SDS_P1;SDS_P2;PMS_P1;PMS_P2;Temp;Humidity;BMP_temperature;BMP_pressure;BME280_temperature;BME280_humidity;BME280_pressure;Samples;Min_cycle;Max_cycle;Signal;HPM_P1;HPM_P2
2021/11/11 00:01:19;;;;;;;0.73;0.73;;;;;;;2.83;99.07;101888.50;5116225;28;20447;-68
2021/11/11 00:03:45;;;;;;;0.40;0.30;;;;;;;2.86;99.02;101892.59;5116059;28;20575;-68
2021/11/11 00:06:12;;;;;;;0.40;0.23;;;;;;;2.87;97.63;101884.34;5116040;28;20459;-68
2021/11/11 00:08:39;;;;;;;0.40;0.30;;;;;;;2.83;97.39;101890.34;5116130;28;20446;-68
2021/11/11 00:11:05;;;;;;;0.77;0.77;;;;;;;2.76;97.12;101898.44;5115707;28;20991;-68
2021/11/11 00:13:32;;;;;;;1.90;1.27;;;;;;;2.72;97.81;101894.56;5116280;28;20452;-68
2021/11/11 00:15:58;;;;;;;0.40;0.30;;;;;;;2.66;98.42;101887.41;5115867;28;20455;-68
2021/11/11 00:18:26;;;;;;;0.40;0.30;;;;;;;2.65;98.08;101875.84;5115982;28;20443;-68
2021/11/11 00:20:52;;;;;;;0.40;0.30;;;;;;;2.58;97.67;101882.31;5115833;28;20443;-68
2021/11/11 00:23:19;;;;;;;0.97;0.97;;;;;;;2.55;97.25;101883.53;5115731;28;20481;-68
2021/11/11 00:25:45;;;;;;;0.50;0.50;;;;;;;2.49;98.47;101879.88;5115667;28;20463;-68
2021/11/11 00:28:12;;;;;;;0.40;0.30;;;;;;;2.64;97.57;101871.56;5115380;28;20929;-68
2021/11/11 00:30:38;;;;;;;0.40;0.30;;;;;;;2.66;98.40;101874.84;5115371;28;20515;-68
2021/11/11 00:33:05;;;;;;;0.40;0.30;;;;;;;2.65;99.01;101875.84;5115567;28;20439;-68
2021/11/11 00:35:33;;;;;;;0.40;0.30;;;;;;;2.51;98.57;101874.31;5115191;28;20979;-68
2021/11/11 00:38:00;;;;;;;0.40;0.30;;;;;;;2.45;98.26;101880.53;5115530;28;20449;-68
2021/11/11 00:40:28;;;;;;;0.40;0.30;;;;;;;2.44;98.31;101876.22;5115478;28;20485;-68
2021/11/11 00:42:55;;;;;;;0.40;0.20;;;;;;;2.29;98.22;101889.84;5114995;28;20999;-68
2021/11/11 00:45:22;;;;;;;0.40;0.30;;;;;;;2.29;99.15;101884.50;5115341;28;20489;-68
2021/11/11 00:47:50;;;;;;;0.40;0.30;;;;;;;2.24;97.39;101893.19;5115260;28;20447;-68
2021/11/11 00:50:20;;;;;;;0.40;0.30;;;;;;;2.18;98.45;101891.38;5115260;28;20544;-67
2021/11/11 00:52:48;;;;;;;0.40;0.30;;;;;;;2.12;98.54;101883.38;5114929;28;20828;-68
2021/11/11 00:55:15;;;;;;;0.40;0.20;;;;;;;2.04;98.15;101881.78;5115056;28;20525;-68
2021/11/11 00:57:42;;;;;;;1.10;1.03;;;;;;;2.05;97.86;101885.25;5115292;28;20440;-68
2021/11/11 01:00:11;;;;;;;0.40;0.30;;;;;;;1.98;98.15;101871.91;5115101;28;20527;-68
2021/11/11 01:02:38;;;;;;;0.40;0.30;;;;;;;2.05;97.26;101861.22;5114909;28;20442;-68
2021/11/11 01:05:07;;;;;;;0.40;0.30;;;;;;;2.11;95.55;101871.03;5114849;28;20466;-67
2021/11/11 01:07:35;;;;;;;1.43;1.33;;;;;;;2.01;97.96;101866.16;5114593;28;20963;-68
2021/11/11 01:10:04;;;;;;;0.40;0.30;;;;;;;2.10;98.64;101869.41;5114670;28;20456;-68
2021/11/11 01:12:31;;;;;;;1.03;0.97;;;;;;;2.02;98.97;101865.94;5114467;28;21024;-68
2021/11/11 01:14:57;;;;;;;0.40;0.30;;;;;;;2.09;98.87;101859.75;5114624;28;20463;-67
2021/11/11 01:17:24;;;;;;;0.40;0.20;;;;;;;2.09;99.67;101870.44;5114685;28;20496;-67
2021/11/11 01:19:50;;;;;;;23.10;16.80;;;;;;;2.18;99.29;101867.31;5114681;28;20448;-67
2021/11/11 01:22:17;;;;;;;0.40;0.30;;;;;;;2.24;98.76;101863.78;5114577;28;20462;-67
2021/11/11 01:24:44;;;;;;;0.40;0.30;;;;;;;2.25;98.18;101860.06;5114102;28;21046;-67
2021/11/11 01:27:11;;;;;;;0.40;0.30;;;;;;;2.30;98.17;101858.59;5114358;28;20439;-67
2021/11/11 01:29:38;;;;;;;0.40;0.30;;;;;;;2.22;97.50;101852.50;5114485;28;20447;-67
2021/11/11 01:32:05;;;;;;;0.40;0.30;;;;;;;2.07;98.41;101854.59;5114371;28;20517;-67
2021/11/11 01:34:31;;;;;;;0.40;0.30;;;;;;;2.21;98.43;101848.19;5114002;28;20932;-67
2021/11/11 01:36:58;;;;;;;0.40;0.30;;;;;;;2.10;98.91;101848.84;5114600;28;20465;-67
2021/11/11 01:39:25;;;;;;;0.40;0.30;;;;;;;2.16;97.39;101844.50;5114278;28;20458;-67
2021/11/11 01:41:52;;;;;;;0.40;0.30;;;;;;;2.10;97.02;101838.16;5114526;28;20436;-68
2021/11/11 01:44:21;;;;;;;0.40;0.30;;;;;;;1.97;97.14;101833.69;5114100;28;20478;-68
2021/11/11 01:46:48;;;;;;;1.17;1.17;;;;;;;1.92;96.03;101830.03;5113855;28;20803;-68
2021/11/11 01:49:15;;;;;;;0.40;0.30;;;;;;;1.92;96.23;101830.84;5114105;28;20450;-68
2021/11/11 01:51:42;;;;;;;0.40;0.30;;;;;;;1.88;96.29;101824.28;5113799;28;20978;-68
2021/11/11 01:54:09;;;;;;;0.40;0.30;;;;;;;1.75;96.80;101829.69;5114019;28;20438;-68
2021/11/11 01:56:36;;;;;;;0.40;0.30;;;;;;;1.81;98.13;101828.00;5113944;28;20512;-68
2021/11/11 01:59:03;;;;;;;0.57;0.57;;;;;;;1.67;97.63;101829.91;5113932;28;20439;-68
2021/11/11 02:01:31;;;;;;;0.40;0.30;;;;;;;1.58;97.51;101826.66;5113141;28;20966;-68
2021/11/11 02:03:57;;;;;;;0.40;0.30;;;;;;;1.58;97.61;101823.97;5113623;28;20884;-68
2021/11/11 02:06:24;;;;;;;0.40;0.30;;;;;;;1.58;97.96;101825.84;5113858;28;20451;-68
2021/11/11 02:08:51;;;;;;;0.40;0.30;;;;;;;1.57;98.18;101826.88;5113868;28;20522;-68
2021/11/11 02:11:18;;;;;;;0.40;0.30;;;;;;;1.53;97.81;101831.81;5113775;28;20439;-68
2021/11/11 02:13:44;;;;;;;0.40;0.30;;;;;;;1.59;97.67;101820.28;5113446;28;20459;-68
2021/11/11 02:16:11;;;;;;;0.40;0.30;;;;;;;1.69;96.41;101815.34;5113308;28;20459;-68
2021/11/11 02:18:39;;;;;;;0.40;0.33;;;;;;;1.61;97.33;101822.75;5113760;28;20470;-68
2021/11/11 02:21:07;;;;;;;0.40;0.30;;;;;;;1.50;99.07;101825.03;5113681;28;20439;-67
2021/11/11 02:23:34;;;;;;;0.40;0.30;;;;;;;1.54;99.90;101825.44;5113615;28;20479;-68
2021/11/11 02:26:00;;;;;;;0.40;0.30;;;;;;;1.62;99.26;101819.03;5113517;28;20470;-68
2021/11/11 02:28:27;;;;;;;0.40;0.30;;;;;;;1.73;99.18;101815.72;5113627;28;20450;-68
2021/11/11 02:30:55;;;;;;;0.40;0.30;;;;;;;1.73;98.28;101807.72;5113569;28;20440;-68
2021/11/11 02:33:25;;;;;;;0.40;0.30;;;;;;;1.86;97.41;101806.81;5113307;28;20440;-68
2021/11/11 02:35:52;;;;;;;0.40;0.30;;;;;;;1.84;96.55;101812.38;5113227;28;21097;-67
2021/11/11 02:38:22;;;;;;;0.40;0.30;;;;;;;1.66;97.64;101817.59;5113511;28;20475;-68
2021/11/11 02:40:48;;;;;;;0.40;0.30;;;;;;;1.68;98.13;101805.69;5113524;28;20439;-68
2021/11/11 02:43:16;;;;;;;1.63;1.53;;;;;;;1.64;98.57;101812.47;5113341;28;20443;-67
2021/11/11 02:45:45;;;;;;;0.50;0.40;;;;;;;1.65;98.97;101806.09;5113333;28;20468;-68
2021/11/11 02:48:14;;;;;;;0.40;0.30;;;;;;;1.59;98.51;101814.94;5113408;28;20438;-67
2021/11/11 02:50:41;;;;;;;0.40;0.30;;;;;;;1.60;98.84;101805.91;5113391;28;20432;-68
2021/11/11 02:53:09;;;;;;;1.03;0.97;;;;;;;1.54;96.91;101798.72;5113392;28;20447;-68
2021/11/11 02:55:37;;;;;;;1.00;1.00;;;;;;;1.47;97.02;101800.63;5113245;28;20494;-68
2021/11/11 02:58:04;;;;;;;0.40;0.30;;;;;;;1.54;96.91;101801.41;5113326;28;20488;-68
2021/11/11 03:00:33;;;;;;;0.40;0.30;;;;;;;1.50;96.82;101805.53;5113302;28;20435;-68
2021/11/11 03:02:59;;;;;;;0.40;0.30;;;;;;;1.46;97.16;101796.28;5112976;28;20955;-68
2021/11/11 03:05:28;;;;;;;0.40;0.30;;;;;;;1.38;96.97;101801.88;5113117;28;20849;-68
2021/11/11 03:07:55;;;;;;;0.40;0.30;;;;;;;1.32;96.97;101794.69;5113235;28;20466;-68
2021/11/11 03:10:24;;;;;;;0.40;0.30;;;;;;;1.25;96.00;101795.53;5113255;28;20435;-68
2021/11/11 03:12:54;;;;;;;0.40;0.30;;;;;;;1.31;95.73;101795.72;5114867;28;20454;-68
2021/11/11 03:15:21;;;;;;;0.40;0.30;;;;;;;1.31;94.91;101801.06;5116592;28;20895;-68
2021/11/11 03:17:49;;;;;;;0.40;0.30;;;;;;;1.14;97.54;101798.03;5116795;28;20932;-68
2021/11/11 03:20:16;;;;;;;0.40;0.30;;;;;;;1.06;98.04;101798.25;5116997;28;20457;-68
2021/11/11 03:22:43;;;;;;;0.40;0.30;;;;;;;1.02;97.63;101797.84;5116993;28;20439;-68
2021/11/11 03:25:12;;;;;;;0.40;0.30;;;;;;;1.08;97.18;101807.69;5116806;28;20514;-68
2021/11/11 03:27:38;;;;;;;0.40;0.30;;;;;;;1.10;97.86;101810.94;5116569;28;20925;-68
2021/11/11 03:30:10;;;;;;;0.40;0.30;;;;;;;1.09;98.92;101813.84;5116502;28;20823;-68
2021/11/11 03:32:37;;;;;;;0.50;0.30;;;;;;;1.11;100.00;101814.47;5116865;28;20427;-68
2021/11/11 03:35:05;;;;;;;0.40;0.30;;;;;;;1.24;98.94;101809.94;5116508;28;20489;-68
2021/11/11 03:37:31;;;;;;;0.40;0.30;;;;;;;1.21;97.38;101814.84;5116708;28;20454;-68
2021/11/11 03:39:58;;;;;;;0.40;0.30;;;;;;;1.07;97.91;101814.06;5116896;28;20460;-68
2021/11/11 03:42:24;;;;;;;0.40;0.30;;;;;;;1.09;98.65;101814.66;5116596;28;20458;-68
2021/11/11 03:44:51;;;;;;;0.40;0.30;;;;;;;1.14;98.34;101806.03;5116515;28;20475;-68
2021/11/11 03:47:19;;;;;;;0.40;0.40;;;;;;;1.06;96.67;101807.06;5116437;28;20496;-68
2021/11/11 03:49:47;;;;;;;0.40;0.30;;;;;;;1.09;97.36;101809.31;5116519;28;20463;-68
2021/11/11 03:52:13;;;;;;;0.50;0.50;;;;;;;1.10;97.83;101810.13;5116386;28;20470;-68
2021/11/11 03:54:41;;;;;;;0.40;0.30;;;;;;;1.16;97.15;101804.00;5116223;28;20502;-68
2021/11/11 03:57:07;;;;;;;2.50;2.40;;;;;;;1.21;97.73;101807.66;5116299;28;20439;-68
2021/11/11 03:59:36;;;;;;;0.40;0.30;;;;;;;1.19;96.59;101809.69;5116331;28;20443;-68
2021/11/11 04:02:04;;;;;;;0.40;0.30;;;;;;;1.23;95.95;101812.78;5115933;28;20542;-68
2021/11/11 04:04:32;;;;;;;1.53;1.43;;;;;;;1.23;96.39;101820.78;5115796;28;20981;-68
2021/11/11 04:06:58;;;;;;;0.40;0.30;;;;;;;1.31;96.41;101807.22;5116099;28;20439;-68
2021/11/11 04:09:24;;;;;;;0.40;0.30;;;;;;;1.19;96.49;101798.22;5116368;28;20440;-67
2021/11/11 04:11:51;;;;;;;0.40;0.30;;;;;;;1.27;96.73;101811.34;5115897;28;20443;-68
2021/11/11 04:14:18;;;;;;;0.40;0.30;;;;;;;1.31;96.50;101809.06;5115630;28;21059;-67
2021/11/11 04:16:45;;;;;;;0.40;0.30;;;;;;;1.36;96.83;101812.75;5115887;28;20502;-68
2021/11/11 04:19:13;;;;;;;25.10;22.40;;;;;;;1.39;96.95;101804.34;5116150;28;20439;-68
2021/11/11 04:21:41;;;;;;;0.40;0.30;;;;;;;1.39;97.02;101819.53;5115568;28;20997;-68
2021/11/11 04:24:07;;;;;;;0.40;0.30;;;;;;;1.46;97.10;101821.16;5115301;28;20446;-68
2021/11/11 04:26:38;;;;;;;0.40;0.30;;;;;;;1.50;97.21;101810.84;5115711;28;20491;-67
2021/11/11 04:29:09;;;;;;;0.40;0.30;;;;;;;1.49;96.42;101812.72;5115717;28;20431;-67
2021/11/11 04:31:40;;;;;;;0.40;0.30;;;;;;;1.45;97.00;101805.34;5115748;28;20463;-67
2021/11/11 04:34:10;;;;;;;0.40;0.30;;;;;;;1.48;97.35;101795.06;5115207;28;20972;-67
2021/11/11 04:39:36;;;;;;;0.40;0.30;;;;;;;1.46;96.71;101804.31;5114697;28;20479;-67
2021/11/11 04:42:16;;;;;;;0.40;0.33;;;;;;;1.41;96.36;101810.28;5115446;28;20428;-67
2021/11/11 04:44:49;;;;;;;0.40;0.20;;;;;;;1.29;96.22;101808.47;5115404;28;20428;-67
2021/11/11 04:52:51;;;;;;;0.40;0.27;;;;;;;1.06;97.74;101809.72;5115180;28;20407;-67
2021/11/11 05:03:34;;;;;;;0.40;0.27;;;;;;;1.07;96.35;101816.72;5114993;28;20453;-68
2021/11/11 05:06:01;;;;;;;0.40;0.30;;;;;;;0.96;96.78;101815.50;5114914;28;20460;-68
2021/11/11 05:08:28;;;;;;;0.40;0.30;;;;;;;0.88;97.37;101820.22;5115001;28;20542;-68
2021/11/11 05:10:56;;;;;;;0.40;0.30;;;;;;;0.90;97.42;101821.66;5114876;28;20537;-68
2021/11/11 05:13:23;;;;;;;0.40;0.30;;;;;;;0.89;97.92;101814.69;5114431;28;20471;-68
2021/11/11 05:15:50;;;;;;;0.40;0.30;;;;;;;1.04;96.14;101821.66;5114653;28;20480;-68
2021/11/11 05:18:17;;;;;;;0.40;0.30;;;;;;;1.03;95.88;101814.69;5114682;28;20458;-67
2021/11/11 05:20:43;;;;;;;0.40;0.30;;;;;;;1.13;96.17;101815.88;5114750;28;20489;-68
2021/11/11 05:23:10;;;;;;;0.40;0.30;;;;;;;1.16;96.48;101810.13;5114557;28;20443;-68
2021/11/11 05:25:37;;;;;;;1.10;1.10;;;;;;;1.07;95.22;101806.06;5114512;28;20459;-68
2021/11/11 05:28:05;;;;;;;0.40;0.20;;;;;;;0.96;96.19;101812.00;5114230;28;20937;-68
2021/11/11 05:30:32;;;;;;;0.40;0.30;;;;;;;1.01;96.67;101812.19;5114182;28;20954;-67
2021/11/11 05:32:59;;;;;;;1.17;1.17;;;;;;;1.01;97.17;101817.53;5114695;28;20510;-67
2021/11/11 05:35:27;;;;;;;0.40;0.30;;;;;;;1.10;97.11;101816.28;5113507;28;20479;-67
2021/11/11 05:37:53;;;;;;;0.40;0.30;;;;;;;1.18;97.34;101815.25;5115318;28;20945;-67
2021/11/11 05:40:21;;;;;;;0.40;0.30;;;;;;;1.14;96.84;101811.38;5114126;28;20453;-67
2021/11/11 05:42:49;;;;;;;0.40;0.30;;;;;;;1.16;96.47;101820.81;5114127;28;20443;-67
2021/11/11 05:45:17;;;;;;;0.40;0.30;;;;;;;1.20;96.68;101815.88;5113587;28;20459;-67
2021/11/11 05:47:44;;;;;;;0.40;0.23;;;;;;;1.17;97.10;101821.63;5113949;28;20442;-66
2021/11/11 05:50:12;;;;;;;0.40;0.30;;;;;;;1.31;96.55;101817.91;5113617;28;20826;-67
2021/11/11 05:52:39;;;;;;;0.40;0.30;;;;;;;1.35;96.14;101812.97;5114110;28;20457;-67
2021/11/11 05:55:07;;;;;;;3.37;3.17;;;;;;;1.33;96.32;101823.03;5113373;28;20488;-66
2021/11/11 05:57:34;;;;;;;0.40;0.30;;;;;;;1.28;96.65;101820.97;5113860;28;20811;-67
2021/11/11 06:00:00;;;;;;;0.40;0.30;;;;;;;1.16;95.41;101817.31;5113532;28;20963;-67
2021/11/11 06:02:28;;;;;;;0.40;0.30;;;;;;;1.04;95.98;101818.97;5113902;28;20443;-67
2021/11/11 06:04:54;;;;;;;0.40;0.30;;;;;;;0.91;95.51;101817.97;5113759;28;20567;-67
2021/11/11 06:07:21;;;;;;;0.40;0.30;;;;;;;0.82;95.86;101816.53;5113458;28;20944;-67
2021/11/11 06:09:47;;;;;;;0.50;0.40;;;;;;;0.93;95.96;101820.41;5113687;28;20439;-67
2021/11/11 06:12:14;;;;;;;0.40;0.30;;;;;;;0.96;95.89;101812.81;5113502;28;20490;-67
2021/11/11 06:14:40;;;;;;;0.40;0.30;;;;;;;0.96;95.02;101825.34;5113473;28;20468;-67
2021/11/11 06:17:07;;;;;;;0.40;0.30;;;;;;;0.90;94.72;101828.84;5113259;28;20847;-67
2021/11/11 06:19:35;;;;;;;0.40;0.30;;;;;;;0.90;96.29;101834.19;5113573;28;20450;-67
2021/11/11 06:22:02;;;;;;;1.50;1.40;;;;;;;0.97;95.03;101848.31;5113256;28;20959;-67
2021/11/11 06:24:29;;;;;;;0.40;0.30;;;;;;;1.03;93.47;101858.19;5113260;28;20450;-67
2021/11/11 06:26:56;;;;;;;0.40;0.30;;;;;;;0.88;94.05;101854.88;5113497;28;20447;-67
2021/11/11 06:29:23;;;;;;;0.40;0.30;;;;;;;0.78;96.26;101865.16;5113502;28;20443;-67
2021/11/11 06:31:49;;;;;;;0.40;0.30;;;;;;;0.89;96.58;101860.03;5113481;28;20439;-67
2021/11/11 06:34:16;;;;;;;0.40;0.30;;;;;;;0.93;97.10;101857.75;5113084;28;20443;-67
2021/11/11 06:36:44;;;;;;;0.40;0.30;;;;;;;1.02;97.21;101851.22;5113282;28;20467;-67
2021/11/11 06:39:11;;;;;;;0.40;0.30;;;;;;;0.90;95.83;101860.84;5113259;28;20443;-67
2021/11/11 06:41:37;;;;;;;0.40;0.30;;;;;;;0.97;96.35;101864.31;5112985;28;20851;-67
2021/11/11 06:44:04;;;;;;;0.40;0.30;;;;;;;1.11;96.10;101860.66;5113260;28;20447;-67
2021/11/11 06:46:31;;;;;;;0.43;0.40;;;;;;;1.04;95.75;101859.81;5114809;28;20455;-67
2021/11/11 06:48:58;;;;;;;0.40;0.30;;;;;;;0.93;94.74;101863.94;5117431;28;20447;-67
2021/11/11 06:51:24;;;;;;;1.23;1.23;;;;;;;0.86;95.54;101863.09;5117301;28;20855;-68
2021/11/11 06:53:53;;;;;;;0.40;0.30;;;;;;;0.86;96.80;101851.63;5117417;28;20435;-67
2021/11/11 06:56:19;;;;;;;0.40;0.30;;;;;;;0.88;96.63;101853.03;5116844;28;20858;-68
2021/11/11 06:58:46;;;;;;;0.40;0.30;;;;;;;0.86;96.88;101856.94;5117447;28;20811;-68
2021/11/11 07:01:12;;;;;;;0.40;0.20;;;;;;;0.81;96.53;101859.41;5117119;28;20815;-67
2021/11/11 07:03:39;;;;;;;0.40;0.30;;;;;;;0.91;96.12;101859.81;5117381;28;20816;-68
2021/11/11 07:06:05;;;;;;;0.40;0.30;;;;;;;0.98;96.06;101863.31;5117184;28;20460;-68
2021/11/11 07:08:32;;;;;;;0.40;0.30;;;;;;;0.90;97.48;101863.53;5116967;28;20955;-68
2021/11/11 07:10:59;;;;;;;0.40;0.30;;;;;;;0.96;98.47;101855.50;5117198;28;20440;-68
2021/11/11 07:13:26;;;;;;;2.20;2.10;;;;;;;0.99;97.35;101856.94;5117059;28;20459;-67
2021/11/11 07:15:52;;;;;;;0.50;0.40;;;;;;;0.99;97.65;101848.94;5116956;28;20478;-68
2021/11/11 07:18:19;;;;;;;0.40;0.30;;;;;;;0.96;97.02;101852.84;5117088;28;20442;-68
2021/11/11 07:20:46;;;;;;;0.40;0.30;;;;;;;0.97;97.48;101850.97;5117029;28;20519;-68
2021/11/11 07:23:14;;;;;;;0.40;0.30;;;;;;;1.12;96.72;101856.94;5116948;28;20504;-68
2021/11/11 07:25:40;;;;;;;0.40;0.30;;;;;;;1.26;96.15;101869.22;5116844;28;20462;-68
2021/11/11 07:28:08;;;;;;;0.40;0.30;;;;;;;1.19;96.81;101864.91;5116839;28;20446;-67
2021/11/11 07:30:35;;;;;;;0.40;0.30;;;;;;;1.18;97.85;101874.78;5116845;28;20435;-68
2021/11/11 07:33:02;;;;;;;0.50;0.50;;;;;;;1.20;98.94;101880.75;5116755;28;20443;-68
2021/11/11 07:35:28;;;;;;;0.40;0.30;;;;;;;1.20;99.84;101874.59;5116257;28;20980;-68
2021/11/11 07:37:55;;;;;;;0.40;0.30;;;;;;;1.29;99.97;101867.19;5116704;28;20446;-68
2021/11/11 07:40:25;;;;;;;0.40;0.30;;;;;;;1.37;99.93;101858.94;5116966;28;20439;-68
2021/11/11 07:42:52;;;;;;;0.40;0.30;;;;;;;1.59;99.03;101855.00;5116683;28;20479;-67
2021/11/11 07:45:24;;;;;;;0.40;0.20;;;;;;;1.63;98.64;101860.72;5116531;28;20494;-67
2021/11/11 07:47:53;;;;;;;0.40;0.30;;;;;;;1.71;98.37;101858.66;5116633;28;20522;-67
2021/11/11 07:50:19;;;;;;;0.50;0.43;;;;;;;1.72;98.71;101868.31;5116286;28;20500;-66
2021/11/11 07:52:46;;;;;;;0.40;0.30;;;;;;;1.68;99.67;101868.94;5115629;28;20456;-66
2021/11/11 07:55:12;;;;;;;0.40;0.30;;;;;;;1.73;100.00;101869.16;5115963;28;20483;-66
2021/11/11 07:57:40;;;;;;;0.40;0.30;;;;;;;1.80;100.00;101872.59;5115464;28;20427;-66
2021/11/11 08:00:09;;;;;;;0.40;0.30;;;;;;;1.93;100.00;101863.72;5116122;28;20439;-66
2021/11/11 08:02:39;;;;;;;0.40;0.30;;;;;;;2.06;99.46;101868.19;5116156;28;20446;-67
2021/11/11 08:05:06;;;;;;;0.40;0.30;;;;;;;2.09;99.04;101862.44;5116276;28;20464;-68
2021/11/11 08:07:33;;;;;;;0.40;0.30;;;;;;;2.19;99.51;101868.13;5116183;28;20443;-68
2021/11/11 08:09:59;;;;;;;1.40;1.33;;;;;;;2.26;99.84;101864.41;5115924;28;20787;-68
2021/11/11 08:12:26;;;;;;;0.40;0.30;;;;;;;2.48;100.00;101872.09;5115856;28;20459;-68
2021/11/11 08:14:52;;;;;;;2.20;1.90;;;;;;;2.62;100.00;101873.63;5115857;28;20463;-68
2021/11/11 08:17:21;;;;;;;0.40;0.30;;;;;;;2.74;100.00;101865.72;5115901;28;20437;-67
2021/11/11 08:19:54;;;;;;;0.40;0.30;;;;;;;2.88;100.00;101866.44;5115498;28;20443;-67
2021/11/11 08:22:21;;;;;;;0.40;0.20;;;;;;;3.06;100.00;101863.03;5115694;28;20434;-67
2021/11/11 08:24:48;;;;;;;0.40;0.30;;;;;;;3.28;100.00;101867.75;5115362;28;20470;-67
2021/11/11 08:27:16;;;;;;;0.50;0.43;;;;;;;3.45;100.00;101867.16;5115627;28;20456;-68
2021/11/11 08:29:44;;;;;;;0.40;0.30;;;;;;;3.60;100.00;101866.81;5115653;28;20451;-69
2021/11/11 08:32:11;;;;;;;0.40;0.30;;;;;;;3.68;100.00;101861.16;5115645;28;20443;-70
2021/11/11 08:34:39;;;;;;;0.40;0.30;;;;;;;3.83;100.00;101869.63;5115573;28;20834;-68
2021/11/11 08:37:08;;;;;;;0.40;0.30;;;;;;;4.00;100.00;101867.16;5115416;28;20483;-69
2021/11/11 08:39:34;;;;;;;0.50;0.30;;;;;;;4.08;100.00;101874.09;5115480;28;20451;-68
2021/11/11 08:42:01;;;;;;;0.40;0.30;;;;;;;4.13;100.00;101868.88;5115169;28;20802;-68
2021/11/11 08:44:28;;;;;;;0.40;0.30;;;;;;;4.19;100.00;101879.50;5115328;28;20471;-68
2021/11/11 08:46:55;;;;;;;0.40;0.30;;;;;;;4.30;100.00;101865.31;5115402;28;20443;-68
2021/11/11 08:49:22;;;;;;;0.40;0.30;;;;;;;4.39;100.00;101863.16;5115348;28;20458;-68
2021/11/11 08:51:50;;;;;;;0.40;0.30;;;;;;;4.42;100.00;101867.22;5115349;28;20447;-68
2021/11/11 08:54:19;;;;;;;2.73;2.53;;;;;;;4.52;100.00;101867.50;5115137;28;20428;-68
2021/11/11 08:56:48;;;;;;;0.40;0.20;;;;;;;4.59;100.00;101867.41;5115059;28;20483;-68
2021/11/11 08:59:17;;;;;;;0.40;0.30;;;;;;;4.71;100.00;101874.44;5115154;28;20506;-68
2021/11/11 09:01:45;;;;;;;16.63;14.37;;;;;;;4.75;100.00;101883.66;5115090;28;20637;-68
2021/11/11 09:04:13;;;;;;;0.40;0.30;;;;;;;4.78;100.00;101893.94;5114718;28;20937;-68
2021/11/11 09:06:39;;;;;;;1.90;1.80;;;;;;;4.69;100.00;101889.97;5114886;28;20821;-68
2021/11/11 09:09:06;;;;;;;0.40;0.30;;;;;;;4.59;100.00;101886.19;5114899;28;20455;-68
2021/11/11 09:11:34;;;;;;;0.40;0.30;;;;;;;4.57;100.00;101880.22;5114887;28;20452;-68
2021/11/11 09:14:01;;;;;;;0.40;0.30;;;;;;;4.59;100.00;101886.19;5114509;28;20458;-68
2021/11/11 09:16:28;;;;;;;0.40;0.30;;;;;;;4.62;100.00;101883.03;5114597;28;20491;-69
2021/11/11 09:18:54;;;;;;;0.40;0.30;;;;;;;4.68;100.00;101882.94;5115026;28;20439;-70
2021/11/11 09:21:21;;;;;;;0.40;0.20;;;;;;;4.76;100.00;101873.75;5114622;28;20458;-69
2021/11/11 09:23:48;;;;;;;0.40;0.30;;;;;;;4.89;100.00;101881.59;5114349;28;20443;-70
2021/11/11 09:26:16;;;;;;;0.40;0.30;;;;;;;4.94;100.00;101868.28;5114413;28;20475;-69
2021/11/11 09:28:45;;;;;;;0.40;0.20;;;;;;;5.05;100.00;101869.34;5114516;28;20443;-68
2021/11/11 09:31:13;;;;;;;0.40;0.30;;;;;;;5.18;100.00;101876.34;5114474;28;20455;-68
2021/11/11 09:33:40;;;;;;;0.40;0.30;;;;;;;5.41;100.00;101879.06;5114487;28;20478;-68
2021/11/11 09:36:07;;;;;;;0.40;0.30;;;;;;;5.59;100.00;101882.66;5113860;28;20991;-68
2021/11/11 09:38:34;;;;;;;0.40;0.20;;;;;;;5.75;100.00;101882.75;5114045;28;20440;-69
2021/11/11 09:41:00;;;;;;;0.40;0.20;;;;;;;5.80;100.00;101888.25;5114337;28;20794;-69
2021/11/11 09:43:27;;;;;;;0.40;0.30;;;;;;;5.85;100.00;101889.41;5114253;28;20790;-69
2021/11/11 09:45:55;;;;;;;0.40;0.30;;;;;;;5.92;100.00;101876.66;5113805;28;20475;-68
2021/11/11 09:48:23;;;;;;;0.50;0.40;;;;;;;5.97;100.00;101882.94;5113422;28;20861;-68
2021/11/11 09:50:49;;;;;;;5.33;4.87;;;;;;;6.00;100.00;101881.69;5113672;28;20435;-69
2021/11/11 09:53:22;;;;;;;0.40;0.20;;;;;;;6.10;100.00;101889.94;5114164;28;20443;-68
2021/11/11 09:58:41;;;;;;;0.40;0.30;;;;;;;6.19;100.00;101887.69;5114018;28;20530;-69
2021/11/11 10:01:12;;;;;;;0.40;0.30;;;;;;;6.19;100.00;101887.69;5114189;28;20513;-68
2021/11/11 10:03:42;;;;;;;0.40;0.30;;;;;;;6.16;100.00;101883.63;5113999;28;20427;-68
2021/11/11 10:06:09;;;;;;;0.40;0.30;;;;;;;6.20;100.00;101886.66;5113799;28;20459;-68
2021/11/11 10:08:38;;;;;;;0.40;0.30;;;;;;;6.21;100.00;101885.59;5113934;28;20471;-68
2021/11/11 10:11:09;;;;;;;0.40;0.30;;;;;;;6.19;100.00;101895.75;5113884;28;20455;-68
2021/11/11 10:13:36;;;;;;;0.40;0.30;;;;;;;6.24;100.00;101894.00;5113512;28;20449;-68
2021/11/11 10:16:11;;;;;;;0.40;0.30;;;;;;;6.32;100.00;101890.91;5113613;28;20486;-68
2021/11/11 10:18:45;;;;;;;0.40;0.30;;;;;;;6.46;100.00;101887.94;5113817;28;20423;-68
2021/11/11 10:21:33;;;;;;;0.40;0.20;;;;;;;6.55;100.00;101886.47;5113337;28;20434;-68
2021/11/11 10:24:17;;;;;;;0.40;0.20;;;;;;;6.69;100.00;101887.84;5113795;28;20531;-68
2021/11/11 10:26:52;;;;;;;1.37;1.27;;;;;;;6.73;100.00;101882.75;5113353;28;20825;-68
2021/11/11 10:29:21;;;;;;;0.40;0.30;;;;;;;6.83;100.00;101878.38;5113624;28;20436;-68
2021/11/11 10:31:53;;;;;;;0.40;0.30;;;;;;;6.83;100.00;101878.38;5113613;28;20435;-68
2021/11/11 10:34:20;;;;;;;0.40;0.30;;;;;;;6.71;100.00;101880.31;5113625;28;20460;-68
2021/11/11 10:36:49;;;;;;;0.40;0.20;;;;;;;6.61;100.00;101871.25;5113434;28;20519;-68
2021/11/11 10:39:18;;;;;;;0.40;0.30;;;;;;;6.60;100.00;101883.91;5113519;28;20447;-69
2021/11/11 10:41:45;;;;;;;0.40;0.30;;;;;;;6.70;100.00;101870.59;5113592;28;20488;-69
2021/11/11 10:44:25;;;;;;;0.40;0.30;;;;;;;6.72;100.00;101868.47;5113533;28;20439;-68
2021/11/11 10:46:56;;;;;;;0.40;0.30;;;;;;;6.76;100.00;101869.63;5113530;28;20423;-69
2021/11/11 10:49:28;;;;;;;1.50;1.47;;;;;;;6.84;100.00;101868.41;5113529;28;20763;-68
2021/11/11 10:51:56;;;;;;;0.40;0.30;;;;;;;6.87;100.00;101867.13;5113727;28;20428;-69
2021/11/11 10:54:23;;;;;;;0.40;0.30;;;;;;;6.86;100.00;101863.59;5113435;28;20451;-68
2021/11/11 10:56:50;;;;;;;0.40;0.30;;;;;;;6.82;100.00;101855.22;5113301;28;20482;-69
2021/11/11 10:59:19;;;;;;;0.40;0.20;;;;;;;6.82;100.00;101849.00;5113364;28;20436;-69
2021/11/11 11:01:46;;;;;;;0.40;0.30;;;;;;;6.83;100.00;101850.63;5113259;28;20446;-67
2021/11/11 11:04:32;;;;;;;0.40;0.20;;;;;;;6.73;100.00;101837.81;5113302;28;20880;-67
2021/11/11 11:07:12;;;;;;;2.10;2.00;;;;;;;6.72;100.00;101844.25;5113288;28;20518;-67
2021/11/11 11:09:39;;;;;;;0.40;0.30;;;;;;;6.79;100.00;101844.91;5113273;28;20447;-67
2021/11/11 11:12:25;;;;;;;0.40;0.30;;;;;;;6.80;100.00;101843.84;5112677;28;20850;-67
2021/11/11 11:14:52;;;;;;;0.40;0.30;;;;;;;6.77;100.00;101838.97;5113200;28;20803;-67
2021/11/11 11:17:19;;;;;;;0.40;0.30;;;;;;;6.80;100.00;101841.16;5113155;28;20506;-68
2021/11/11 11:19:47;;;;;;;0.40;0.30;;;;;;;6.82;100.00;101833.66;5113066;28;20933;-68
2021/11/11 11:22:21;;;;;;;0.40;0.20;;;;;;;6.91;100.00;101835.94;5113207;28;20439;-68
2021/11/11 11:25:00;;;;;;;0.40;0.27;;;;;;;6.91;100.00;101841.34;5112970;28;20458;-68
2021/11/11 11:27:32;;;;;;;0.40;0.20;;;;;;;6.98;100.00;101836.59;5113195;28;20428;-69
2021/11/11 11:30:06;;;;;;;0.40;0.30;;;;;;;7.05;100.00;101842.63;5113279;28;20420;-69
2021/11/11 11:32:35;;;;;;;0.57;0.40;;;;;;;7.02;100.00;101837.72;5113321;28;20469;-69
2021/11/11 11:35:05;;;;;;;0.40;0.30;;;;;;;7.04;100.00;101843.69;5116646;28;20833;-69
2021/11/11 11:37:34;;;;;;;0.40;0.30;;;;;;;7.04;100.00;101838.31;5118176;28;20471;-69
2021/11/11 11:40:04;;;;;;;0.40;0.30;;;;;;;7.05;100.00;101839.94;5116835;28;20443;-69
2021/11/11 11:42:34;;;;;;;0.40;0.30;;;;;;;7.11;100.00;101833.56;5116918;28;20446;-69
2021/11/11 11:45:03;;;;;;;0.40;0.30;;;;;;;7.23;100.00;101831.59;5116997;28;20459;-68
2021/11/11 11:47:34;;;;;;;0.40;0.30;;;;;;;7.38;100.00;101824.78;5116637;28;20440;-69
2021/11/11 11:50:07;;;;;;;0.40;0.30;;;;;;;7.53;100.00;101828.50;5116766;28;20460;-68
2021/11/11 11:52:35;;;;;;;0.40;0.30;;;;;;;7.58;100.00;101822.34;5116624;28;20427;-68
2021/11/11 11:55:08;;;;;;;0.40;0.30;;;;;;;7.61;100.00;101834.50;5116462;28;20495;-68